sensor_id;sensor_type;location;lat;lon;timestamp;temperature;humidity
77829;DHT22;67019;51.034;3.728;2023-03-31T00:01:11;11.40;97.20
77829;DHT22;67019;51.034;3.728;2023-03-31T00:03:39;11.40;97.40
77829;DHT22;67019;51.034;3.728;2023-03-31T00:06:11;11.40;97.10
77829;DHT22;67019;51.034;3.728;2023-03-31T00:08:40;11.50;97.00
77829;DHT22;67019;51.034;3.728;2023-03-31T00:11:08;11.40;97.10
77829;DHT22;67019;51.034;3.728;2023-03-31T00:13:37;11.40;97.30
77829;DHT22;67019;51.034;3.728;2023-03-31T00:16:08;11.30;97.60
77829;DHT22;67019;51.034;3.728;2023-03-31T00:18:36;11.30;97.90
77829;DHT22;67019;51.034;3.728;2023-03-31T00:23:37;11.30;97.80
77829;DHT22;67019;51.034;3.728;2023-03-31T00:26:05;11.20;98.20
77829;DHT22;67019;51.034;3.728;2023-03-31T00:28:33;11.10;98.70
77829;DHT22;67019;51.034;3.728;2023-03-31T00:31:02;11.10;98.50
77829;DHT22;67019;51.034;3.728;2023-03-31T00:33:31;11.00;98.50
77829;DHT22;67019;51.034;3.728;2023-03-31T00:35:58;11.00;98.60
77829;DHT22;67019;51.034;3.728;2023-03-31T00:38:28;10.90;99.20
77829;DHT22;67019;51.034;3.728;2023-03-31T00:40:56;10.80;99.40
77829;DHT22;67019;51.034;3.728;2023-03-31T00:43:32;10.80;99.20
77829;DHT22;67019;51.034;3.728;2023-03-31T00:46:08;10.70;99.20
77829;DHT22;67019;51.034;3.728;2023-03-31T00:48:37;10.70;99.40
77829;DHT22;67019;51.034;3.728;2023-03-31T00:51:06;10.70;99.60
77829;DHT22;67019;51.034;3.728;2023-03-31T00:53:34;10.80;99.60
77829;DHT22;67019;51.034;3.728;2023-03-31T00:56:10;10.70;99.70
77829;DHT22;67019;51.034;3.728;2023-03-31T00:58:37;10.70;99.70
77829;DHT22;67019;51.034;3.728;2023-03-31T01:01:07;10.80;99.70
77829;DHT22;67019;51.034;3.728;2023-03-31T01:03:37;10.80;99.30
77829;DHT22;67019;51.034;3.728;2023-03-31T01:06:05;10.80;99.50
77829;DHT22;67019;51.034;3.728;2023-03-31T01:08:36;10.90;99.00
77829;DHT22;67019;51.034;3.728;2023-03-31T01:11:06;11.00;99.00
77829;DHT22;67019;51.034;3.728;2023-03-31T01:13:37;11.00;98.90
77829;DHT22;67019;51.034;3.728;2023-03-31T01:16:06;11.00;98.80
77829;DHT22;67019;51.034;3.728;2023-03-31T01:18:36;11.00;98.60
77829;DHT22;67019;51.034;3.728;2023-03-31T01:24:24;11.00;98.80
77829;DHT22;67019;51.034;3.728;2023-03-31T01:27:20;11.00;98.20
77829;DHT22;67019;51.034;3.728;2023-03-31T01:41:10;11.00;98.00
77829;DHT22;67019;51.034;3.728;2023-03-31T01:43:55;11.00;97.90
77829;DHT22;67019;51.034;3.728;2023-03-31T01:52:17;11.00;97.90
77829;DHT22;67019;51.034;3.728;2023-03-31T01:55:00;11.00;98.00
77829;DHT22;67019;51.034;3.728;2023-03-31T01:57:39;11.00;98.10
77829;DHT22;67019;51.034;3.728;2023-03-31T02:00:08;10.80;98.50
77829;DHT22;67019;51.034;3.728;2023-03-31T02:02:41;10.90;98.50
77829;DHT22;67019;51.034;3.728;2023-03-31T02:05:15;10.90;98.50
77829;DHT22;67019;51.034;3.728;2023-03-31T02:07:48;11.00;98.30
77829;DHT22;67019;51.034;3.728;2023-03-31T02:10:17;11.00;98.20
77829;DHT22;67019;51.034;3.728;2023-03-31T02:12:47;11.00;98.50
77829;DHT22;67019;51.034;3.728;2023-03-31T02:15:23;11.00;98.20
77829;DHT22;67019;51.034;3.728;2023-03-31T02:17:50;11.00;98.10
77829;DHT22;67019;51.034;3.728;2023-03-31T02:20:22;10.90;98.10
77829;DHT22;67019;51.034;3.728;2023-03-31T02:22:54;10.80;98.30
77829;DHT22;67019;51.034;3.728;2023-03-31T02:25:27;10.80;98.20
77829;DHT22;67019;51.034;3.728;2023-03-31T02:27:57;10.90;98.50
77829;DHT22;67019;51.034;3.728;2023-03-31T02:30:28;10.90;98.20
77829;DHT22;67019;51.034;3.728;2023-03-31T02:32:54;10.80;98.20
77829;DHT22;67019;51.034;3.728;2023-03-31T02:35:21;10.80;98.40
77829;DHT22;67019;51.034;3.728;2023-03-31T02:37:50;10.80;98.50
77829;DHT22;67019;51.034;3.728;2023-03-31T02:40:21;10.80;98.30
77829;DHT22;67019;51.034;3.728;2023-03-31T02:42:50;10.80;97.90
77829;DHT22;67019;51.034;3.728;2023-03-31T02:45:38;10.90;97.60
77829;DHT22;67019;51.034;3.728;2023-03-31T02:48:08;10.90;97.10
77829;DHT22;67019;51.034;3.728;2023-03-31T03:02:09;10.70;96.80
77829;DHT22;67019;51.034;3.728;2023-03-31T03:04:49;10.70;96.40
77829;DHT22;67019;51.034;3.728;2023-03-31T03:10:11;10.60;96.90
77829;DHT22;67019;51.034;3.728;2023-03-31T03:12:53;10.50;97.10
77829;DHT22;67019;51.034;3.728;2023-03-31T03:15:42;10.50;97.30
77829;DHT22;67019;51.034;3.728;2023-03-31T03:18:06;10.30;97.60
77829;DHT22;67019;51.034;3.728;2023-03-31T03:20:34;10.20;98.10
77829;DHT22;67019;51.034;3.728;2023-03-31T03:23:02;10.20;98.30
77829;DHT22;67019;51.034;3.728;2023-03-31T03:25:29;10.20;97.80
77829;DHT22;67019;51.034;3.728;2023-03-31T03:27:57;10.10;98.10
77829;DHT22;67019;51.034;3.728;2023-03-31T03:30:25;10.00;98.50
77829;DHT22;67019;51.034;3.728;2023-03-31T03:32:52;9.90;98.50
77829;DHT22;67019;51.034;3.728;2023-03-31T03:35:21;10.00;98.50
77829;DHT22;67019;51.034;3.728;2023-03-31T03:37:49;10.00;98.40
77829;DHT22;67019;51.034;3.728;2023-03-31T03:40:17;10.00;98.60
77829;DHT22;67019;51.034;3.728;2023-03-31T03:42:44;10.00;98.60
77829;DHT22;67019;51.034;3.728;2023-03-31T03:45:12;10.00;98.70
77829;DHT22;67019;51.034;3.728;2023-03-31T03:47:39;9.80;98.60
77829;DHT22;67019;51.034;3.728;2023-03-31T03:50:08;10.00;98.10
77829;DHT22;67019;51.034;3.728;2023-03-31T03:52:35;9.90;98.40
77829;DHT22;67019;51.034;3.728;2023-03-31T03:55:05;9.90;98.20
77829;DHT22;67019;51.034;3.728;2023-03-31T03:57:33;9.90;98.10
77829;DHT22;67019;51.034;3.728;2023-03-31T04:00:00;9.80;98.40
77829;DHT22;67019;51.034;3.728;2023-03-31T04:02:30;9.80;98.50
77829;DHT22;67019;51.034;3.728;2023-03-31T04:04:57;9.70;99.00
77829;DHT22;67019;51.034;3.728;2023-03-31T04:07:25;9.80;99.40
77829;DHT22;67019;51.034;3.728;2023-03-31T04:09:54;9.60;99.50
77829;DHT22;67019;51.034;3.728;2023-03-31T04:12:21;9.70;99.60
77829;DHT22;67019;51.034;3.728;2023-03-31T04:14:49;9.80;99.10
77829;DHT22;67019;51.034;3.728;2023-03-31T04:17:17;9.70;99.50
77829;DHT22;67019;51.034;3.728;2023-03-31T04:19:46;9.50;99.90
77829;DHT22;67019;51.034;3.728;2023-03-31T04:22:17;9.50;99.90
77829;DHT22;67019;51.034;3.728;2023-03-31T04:24:46;9.50;99.80
77829;DHT22;67019;51.034;3.728;2023-03-31T04:27:15;9.50;99.90
77829;DHT22;67019;51.034;3.728;2023-03-31T04:29:43;9.50;99.90
77829;DHT22;67019;51.034;3.728;2023-03-31T04:32:12;9.50;99.90
77829;DHT22;67019;51.034;3.728;2023-03-31T04:34:40;9.70;99.70
77829;DHT22;67019;51.034;3.728;2023-03-31T04:37:09;9.70;99.50
77829;DHT22;67019;51.034;3.728;2023-03-31T04:39:37;9.80;99.30
77829;DHT22;67019;51.034;3.728;2023-03-31T04:42:06;9.80;99.40
77829;DHT22;67019;51.034;3.728;2023-03-31T04:44:36;9.80;98.90
77829;DHT22;67019;51.034;3.728;2023-03-31T04:47:03;9.80;99.20
77829;DHT22;67019;51.034;3.728;2023-03-31T04:49:32;9.70;99.50
77829;DHT22;67019;51.034;3.728;2023-03-31T04:52:01;9.70;99.60
77829;DHT22;67019;51.034;3.728;2023-03-31T04:54:29;9.80;99.50
77829;DHT22;67019;51.034;3.728;2023-03-31T04:56:56;9.90;99.30
77829;DHT22;67019;51.034;3.728;2023-03-31T04:59:24;10.00;99.00
77829;DHT22;67019;51.034;3.728;2023-03-31T05:01:52;10.00;99.40
77829;DHT22;67019;51.034;3.728;2023-03-31T05:04:19;10.00;99.50
77829;DHT22;67019;51.034;3.728;2023-03-31T05:06:49;9.90;99.60
77829;DHT22;67019;51.034;3.728;2023-03-31T05:09:16;10.00;99.40
77829;DHT22;67019;51.034;3.728;2023-03-31T05:11:47;10.00;99.70
77829;DHT22;67019;51.034;3.728;2023-03-31T05:14:15;10.10;99.30
77829;DHT22;67019;51.034;3.728;2023-03-31T05:16:43;10.10;99.50
77829;DHT22;67019;51.034;3.728;2023-03-31T05:19:12;10.20;99.50
77829;DHT22;67019;51.034;3.728;2023-03-31T05:21:40;10.30;99.10
77829;DHT22;67019;51.034;3.728;2023-03-31T05:24:08;10.20;99.30
77829;DHT22;67019;51.034;3.728;2023-03-31T05:26:35;10.30;99.40
77829;DHT22;67019;51.034;3.728;2023-03-31T05:29:03;10.30;99.10
77829;DHT22;67019;51.034;3.728;2023-03-31T05:31:33;10.40;99.30
77829;DHT22;67019;51.034;3.728;2023-03-31T05:34:02;10.40;98.70
77829;DHT22;67019;51.034;3.728;2023-03-31T05:36:29;10.40;98.90
77829;DHT22;67019;51.034;3.728;2023-03-31T05:38:57;10.50;98.50
77829;DHT22;67019;51.034;3.728;2023-03-31T05:41:26;10.60;98.00
77829;DHT22;67019;51.034;3.728;2023-03-31T05:43:56;10.60;98.00
77829;DHT22;67019;51.034;3.728;2023-03-31T05:46:26;10.60;97.90
77829;DHT22;67019;51.034;3.728;2023-03-31T05:48:53;10.70;98.10
77829;DHT22;67019;51.034;3.728;2023-03-31T05:51:23;10.70;98.20
77829;DHT22;67019;51.034;3.728;2023-03-31T05:53:51;10.70;97.80
77829;DHT22;67019;51.034;3.728;2023-03-31T05:56:18;10.70;97.70
77829;DHT22;67019;51.034;3.728;2023-03-31T05:58:48;10.70;97.80
77829;DHT22;67019;51.034;3.728;2023-03-31T06:01:16;10.80;97.30
77829;DHT22;67019;51.034;3.728;2023-03-31T06:03:46;10.70;97.90
77829;DHT22;67019;51.034;3.728;2023-03-31T06:06:14;10.70;97.80
77829;DHT22;67019;51.034;3.728;2023-03-31T06:08:44;10.90;97.30
77829;DHT22;67019;51.034;3.728;2023-03-31T06:11:18;10.90;97.10
77829;DHT22;67019;51.034;3.728;2023-03-31T06:13:47;10.80;97.30
77829;DHT22;67019;51.034;3.728;2023-03-31T06:16:16;10.80;97.60
77829;DHT22;67019;51.034;3.728;2023-03-31T06:18:44;10.90;97.00
77829;DHT22;67019;51.034;3.728;2023-03-31T06:21:15;11.00;97.20
77829;DHT22;67019;51.034;3.728;2023-03-31T06:23:42;10.90;97.00
77829;DHT22;67019;51.034;3.728;2023-03-31T06:26:16;11.00;96.90
77829;DHT22;67019;51.034;3.728;2023-03-31T06:28:44;11.00;97.00
77829;DHT22;67019;51.034;3.728;2023-03-31T06:31:16;10.90;97.20
77829;DHT22;67019;51.034;3.728;2023-03-31T06:33:44;10.90;97.40
77829;DHT22;67019;51.034;3.728;2023-03-31T06:36:13;11.00;97.20
77829;DHT22;67019;51.034;3.728;2023-03-31T06:38:42;10.90;97.20
77829;DHT22;67019;51.034;3.728;2023-03-31T06:41:12;10.90;97.30
77829;DHT22;67019;51.034;3.728;2023-03-31T06:43:39;10.90;97.00
77829;DHT22;67019;51.034;3.728;2023-03-31T06:46:07;10.90;96.60
77829;DHT22;67019;51.034;3.728;2023-03-31T06:48:35;11.00;96.80
77829;DHT22;67019;51.034;3.728;2023-03-31T06:51:05;11.00;96.70
77829;DHT22;67019;51.034;3.728;2023-03-31T06:53:33;11.00;96.70
77829;DHT22;67019;51.034;3.728;2023-03-31T06:56:02;11.00;96.60
77829;DHT22;67019;51.034;3.728;2023-03-31T06:58:31;11.10;96.30
77829;DHT22;67019;51.034;3.728;2023-03-31T07:01:01;11.10;96.50
77829;DHT22;67019;51.034;3.728;2023-03-31T07:03:29;11.20;96.20
77829;DHT22;67019;51.034;3.728;2023-03-31T07:05:59;11.20;96.00
77829;DHT22;67019;51.034;3.728;2023-03-31T07:08:27;11.30;95.70
77829;DHT22;67019;51.034;3.728;2023-03-31T07:10:57;11.20;95.70
77829;DHT22;67019;51.034;3.728;2023-03-31T07:13:25;11.30;96.10
77829;DHT22;67019;51.034;3.728;2023-03-31T07:15:53;11.30;96.30
77829;DHT22;67019;51.034;3.728;2023-03-31T07:18:21;11.30;96.20
77829;DHT22;67019;51.034;3.728;2023-03-31T07:20:51;11.30;96.30
77829;DHT22;67019;51.034;3.728;2023-03-31T07:23:19;11.30;96.10
77829;DHT22;67019;51.034;3.728;2023-03-31T07:25:47;11.30;96.40
77829;DHT22;67019;51.034;3.728;2023-03-31T07:28:15;11.30;96.30
77829;DHT22;67019;51.034;3.728;2023-03-31T07:30:44;11.20;96.20
77829;DHT22;67019;51.034;3.728;2023-03-31T07:33:11;11.20;96.40
77829;DHT22;67019;51.034;3.728;2023-03-31T07:35:40;11.20;96.80
77829;DHT22;67019;51.034;3.728;2023-03-31T07:38:09;11.10;97.10
77829;DHT22;67019;51.034;3.728;2023-03-31T07:40:38;11.10;96.80
77829;DHT22;67019;51.034;3.728;2023-03-31T07:43:06;11.10;96.60
77829;DHT22;67019;51.034;3.728;2023-03-31T07:45:34;11.00;96.60
77829;DHT22;67019;51.034;3.728;2023-03-31T07:48:01;11.10;96.90
77829;DHT22;67019;51.034;3.728;2023-03-31T07:50:29;11.10;96.50
77829;DHT22;67019;51.034;3.728;2023-03-31T07:52:57;11.10;96.20
77829;DHT22;67019;51.034;3.728;2023-03-31T07:55:26;11.10;96.60
77829;DHT22;67019;51.034;3.728;2023-03-31T07:57:54;11.20;95.70
77829;DHT22;67019;51.034;3.728;2023-03-31T08:00:22;11.20;96.30
77829;DHT22;67019;51.034;3.728;2023-03-31T08:02:50;11.20;95.90
77829;DHT22;67019;51.034;3.728;2023-03-31T08:05:19;11.40;95.40
77829;DHT22;67019;51.034;3.728;2023-03-31T08:07:48;11.50;95.10
77829;DHT22;67019;51.034;3.728;2023-03-31T08:10:23;11.40;95.00
77829;DHT22;67019;51.034;3.728;2023-03-31T08:12:47;11.50;94.80
77829;DHT22;67019;51.034;3.728;2023-03-31T08:15:16;11.60;94.10
77829;DHT22;67019;51.034;3.728;2023-03-31T08:17:44;11.60;94.00
77829;DHT22;67019;51.034;3.728;2023-03-31T08:20:12;11.50;93.70
77829;DHT22;67019;51.034;3.728;2023-03-31T08:22:40;11.50;93.70
77829;DHT22;67019;51.034;3.728;2023-03-31T08:25:08;11.70;93.70
77829;DHT22;67019;51.034;3.728;2023-03-31T08:27:38;11.70;93.80
77829;DHT22;67019;51.034;3.728;2023-03-31T08:30:09;11.70;93.40
77829;DHT22;67019;51.034;3.728;2023-03-31T08:32:37;11.60;92.90
77829;DHT22;67019;51.034;3.728;2023-03-31T08:35:05;11.60;93.10
77829;DHT22;67019;51.034;3.728;2023-03-31T08:37:34;11.60;92.60
77829;DHT22;67019;51.034;3.728;2023-03-31T08:40:02;11.70;92.60
77829;DHT22;67019;51.034;3.728;2023-03-31T08:42:42;11.70;92.90
77829;DHT22;67019;51.034;3.728;2023-03-31T08:45:25;11.70;92.70
77829;DHT22;67019;51.034;3.728;2023-03-31T08:47:58;11.70;92.70
77829;DHT22;67019;51.034;3.728;2023-03-31T08:50:31;11.80;92.20
77829;DHT22;67019;51.034;3.728;2023-03-31T08:53:05;11.70;92.60
77829;DHT22;67019;51.034;3.728;2023-03-31T08:55:43;11.70;92.30
77829;DHT22;67019;51.034;3.728;2023-03-31T09:00:52;11.90;91.90
77829;DHT22;67019;51.034;3.728;2023-03-31T09:03:30;11.90;91.60
77829;DHT22;67019;51.034;3.728;2023-03-31T09:06:00;11.80;92.50
77829;DHT22;67019;51.034;3.728;2023-03-31T09:08:32;11.70;92.60
77829;DHT22;67019;51.034;3.728;2023-03-31T09:14:23;11.60;93.60
77829;DHT22;67019;51.034;3.728;2023-03-31T09:16:57;11.60;93.30
77829;DHT22;67019;51.034;3.728;2023-03-31T09:19:44;11.70;92.90
77829;DHT22;67019;51.034;3.728;2023-03-31T09:22:20;11.60;92.80
77829;DHT22;67019;51.034;3.728;2023-03-31T09:25:06;11.60;92.50
77829;DHT22;67019;51.034;3.728;2023-03-31T09:27:34;11.60;92.70
77829;DHT22;67019;51.034;3.728;2023-03-31T09:30:13;11.70;92.70
77829;DHT22;67019;51.034;3.728;2023-03-31T09:32:42;11.70;93.00
77829;DHT22;67019;51.034;3.728;2023-03-31T09:35:16;11.70;93.40
77829;DHT22;67019;51.034;3.728;2023-03-31T09:37:40;11.80;93.20
77829;DHT22;67019;51.034;3.728;2023-03-31T09:40:13;11.80;93.20
77829;DHT22;67019;51.034;3.728;2023-03-31T09:42:38;11.70;93.30
77829;DHT22;67019;51.034;3.728;2023-03-31T09:45:12;11.80;93.50
77829;DHT22;67019;51.034;3.728;2023-03-31T09:47:41;11.80;93.10
77829;DHT22;67019;51.034;3.728;2023-03-31T09:50:10;11.80;93.10
77829;DHT22;67019;51.034;3.728;2023-03-31T09:52:47;11.80;94.10
77829;DHT22;67019;51.034;3.728;2023-03-31T09:57:48;11.80;93.80
77829;DHT22;67019;51.034;3.728;2023-03-31T10:00:18;11.60;94.40
77829;DHT22;67019;51.034;3.728;2023-03-31T10:02:54;11.50;94.80
77829;DHT22;67019;51.034;3.728;2023-03-31T10:05:33;11.40;95.60
77829;DHT22;67019;51.034;3.728;2023-03-31T10:08:16;11.20;96.10
77829;DHT22;67019;51.034;3.728;2023-03-31T10:11:05;11.10;96.20
77829;DHT22;67019;51.034;3.728;2023-03-31T10:13:26;11.10;96.30
77829;DHT22;67019;51.034;3.728;2023-03-31T10:16:03;11.30;95.90
77829;DHT22;67019;51.034;3.728;2023-03-31T10:18:40;11.30;95.70
77829;DHT22;67019;51.034;3.728;2023-03-31T10:21:25;11.30;95.40
77829;DHT22;67019;51.034;3.728;2023-03-31T10:23:54;11.30;95.10
77829;DHT22;67019;51.034;3.728;2023-03-31T10:26:25;11.30;95.70
77829;DHT22;67019;51.034;3.728;2023-03-31T10:28:52;11.30;95.90
77829;DHT22;67019;51.034;3.728;2023-03-31T10:31:26;11.20;95.90
77829;DHT22;67019;51.034;3.728;2023-03-31T10:33:55;11.30;95.70
77829;DHT22;67019;51.034;3.728;2023-03-31T10:36:26;11.20;95.80
77829;DHT22;67019;51.034;3.728;2023-03-31T10:38:54;11.10;96.20
77829;DHT22;67019;51.034;3.728;2023-03-31T10:41:24;11.20;96.20
77829;DHT22;67019;51.034;3.728;2023-03-31T10:43:55;11.20;95.80
77829;DHT22;67019;51.034;3.728;2023-03-31T10:51:56;11.30;95.80
77829;DHT22;67019;51.034;3.728;2023-03-31T10:54:24;11.30;95.60
77829;DHT22;67019;51.034;3.728;2023-03-31T10:56:55;11.40;95.60
77829;DHT22;67019;51.034;3.728;2023-03-31T10:59:34;11.40;95.60
77829;DHT22;67019;51.034;3.728;2023-03-31T11:03:06;11.60;95.40
77829;DHT22;67019;51.034;3.728;2023-03-31T11:07:46;11.80;94.80
77829;DHT22;67019;51.034;3.728;2023-03-31T11:10:41;11.70;95.10
77829;DHT22;67019;51.034;3.728;2023-03-31T11:16:13;11.30;95.70
77829;DHT22;67019;51.034;3.728;2023-03-31T11:21:25;11.40;95.50
77829;DHT22;67019;51.034;3.728;2023-03-31T11:23:59;11.40;95.60
77829;DHT22;67019;51.034;3.728;2023-03-31T11:26:42;11.40;95.50
77829;DHT22;67019;51.034;3.728;2023-03-31T11:29:31;11.50;96.00
77829;DHT22;67019;51.034;3.728;2023-03-31T11:32:27;11.40;95.40
77829;DHT22;67019;51.034;3.728;2023-03-31T11:43:06;11.20;97.00
77829;DHT22;67019;51.034;3.728;2023-03-31T11:45:40;11.20;97.30
77829;DHT22;67019;51.034;3.728;2023-03-31T11:48:05;11.20;96.70
77829;DHT22;67019;51.034;3.728;2023-03-31T11:50:35;11.20;96.50
77829;DHT22;67019;51.034;3.728;2023-03-31T11:53:49;11.20;96.70
77829;DHT22;67019;51.034;3.728;2023-03-31T11:55:38;11.20;96.40
77829;DHT22;67019;51.034;3.728;2023-03-31T11:58:12;11.20;96.40
77829;DHT22;67019;51.034;3.728;2023-03-31T12:00:50;11.30;96.50
77829;DHT22;67019;51.034;3.728;2023-03-31T12:03:20;11.30;96.30
77829;DHT22;67019;51.034;3.728;2023-03-31T12:05:48;11.40;96.00
77829;DHT22;67019;51.034;3.728;2023-03-31T12:08:35;11.40;96.30
77829;DHT22;67019;51.034;3.728;2023-03-31T12:11:08;11.50;95.10
77829;DHT22;67019;51.034;3.728;2023-03-31T12:14:20;11.50;95.30
77829;DHT22;67019;51.034;3.728;2023-03-31T12:16:53;11.40;95.10
77829;DHT22;67019;51.034;3.728;2023-03-31T12:24:35;11.50;94.30
77829;DHT22;67019;51.034;3.728;2023-03-31T12:27:10;11.40;93.60
77829;DHT22;67019;51.034;3.728;2023-03-31T12:29:41;11.60;93.60
77829;DHT22;67019;51.034;3.728;2023-03-31T12:32:21;11.60;93.50
77829;DHT22;67019;51.034;3.728;2023-03-31T12:35:06;11.60;93.00
77829;DHT22;67019;51.034;3.728;2023-03-31T12:37:35;11.60;93.40
77829;DHT22;67019;51.034;3.728;2023-03-31T12:40:16;11.60;94.20
77829;DHT22;67019;51.034;3.728;2023-03-31T12:46:06;11.50;94.30
77829;DHT22;67019;51.034;3.728;2023-03-31T12:54:25;11.10;95.70
77829;DHT22;67019;51.034;3.728;2023-03-31T12:57:04;11.00;96.40
77829;DHT22;67019;51.034;3.728;2023-03-31T12:59:40;11.00;96.70
77829;DHT22;67019;51.034;3.728;2023-03-31T13:02:18;11.10;95.90
77829;DHT22;67019;51.034;3.728;2023-03-31T13:04:46;11.10;95.70
77829;DHT22;67019;51.034;3.728;2023-03-31T13:10:22;11.10;94.10
77829;DHT22;67019;51.034;3.728;2023-03-31T13:13:02;11.10;94.30
77829;DHT22;67019;51.034;3.728;2023-03-31T13:15:31;11.10;94.00
77829;DHT22;67019;51.034;3.728;2023-03-31T13:18:03;11.00;94.00
77829;DHT22;67019;51.034;3.728;2023-03-31T13:20:36;11.00;94.60
77829;DHT22;67019;51.034;3.728;2023-03-31T13:23:19;11.00;94.90
77829;DHT22;67019;51.034;3.728;2023-03-31T13:25:53;10.90;94.90
77829;DHT22;67019;51.034;3.728;2023-03-31T13:30:58;10.80;96.20
77829;DHT22;67019;51.034;3.728;2023-03-31T13:33:35;10.70;96.20
77829;DHT22;67019;51.034;3.728;2023-03-31T13:47:30;10.50;97.60
77829;DHT22;67019;51.034;3.728;2023-03-31T14:04:37;10.40;98.10
77829;DHT22;67019;51.034;3.728;2023-03-31T14:07:17;10.20;97.90
77829;DHT22;67019;51.034;3.728;2023-03-31T14:09:41;10.20;98.40
77829;DHT22;67019;51.034;3.728;2023-03-31T14:12:32;10.10;98.50
77829;DHT22;67019;51.034;3.728;2023-03-31T14:14:53;10.20;98.70
77829;DHT22;67019;51.034;3.728;2023-03-31T14:17:27;10.20;98.60
77829;DHT22;67019;51.034;3.728;2023-03-31T14:25:58;10.60;98.30
77829;DHT22;67019;51.034;3.728;2023-03-31T14:31:22;10.40;97.60
77829;DHT22;67019;51.034;3.728;2023-03-31T14:39:08;10.50;96.80
77829;DHT22;67019;51.034;3.728;2023-03-31T14:41:35;10.40;97.40
77829;DHT22;67019;51.034;3.728;2023-03-31T14:44:05;10.50;97.10
77829;DHT22;67019;51.034;3.728;2023-03-31T14:46:37;10.50;97.70
77829;DHT22;67019;51.034;3.728;2023-03-31T14:51:44;10.30;98.10
77829;DHT22;67019;51.034;3.728;2023-03-31T14:54:17;10.30;99.00
77829;DHT22;67019;51.034;3.728;2023-03-31T14:56:50;10.10;99.30
77829;DHT22;67019;51.034;3.728;2023-03-31T14:59:21;10.20;99.50
77829;DHT22;67019;51.034;3.728;2023-03-31T15:01:49;10.20;99.90
77829;DHT22;67019;51.034;3.728;2023-03-31T15:04:20;10.30;99.50
77829;DHT22;67019;51.034;3.728;2023-03-31T15:06:49;10.20;99.70
77829;DHT22;67019;51.034;3.728;2023-03-31T15:09:26;10.20;99.60
77829;DHT22;67019;51.034;3.728;2023-03-31T15:12:01;10.20;98.90
77829;DHT22;67019;51.034;3.728;2023-03-31T15:14:31;10.30;98.30
77829;DHT22;67019;51.034;3.728;2023-03-31T15:17:00;10.30;98.50
77829;DHT22;67019;51.034;3.728;2023-03-31T15:19:31;10.20;98.30
77829;DHT22;67019;51.034;3.728;2023-03-31T15:22:09;10.30;98.60
77829;DHT22;67019;51.034;3.728;2023-03-31T15:24:39;10.30;98.60
77829;DHT22;67019;51.034;3.728;2023-03-31T15:29:55;10.10;99.00
77829;DHT22;67019;51.034;3.728;2023-03-31T15:32:34;10.10;98.90
77829;DHT22;67019;51.034;3.728;2023-03-31T15:35:01;10.10;99.00
77829;DHT22;67019;51.034;3.728;2023-03-31T15:37:36;10.10;98.70
77829;DHT22;67019;51.034;3.728;2023-03-31T15:40:28;10.20;98.20
77829;DHT22;67019;51.034;3.728;2023-03-31T15:42:35;10.40;97.30
77829;DHT22;67019;51.034;3.728;2023-03-31T15:47:51;10.40;96.90
77829;DHT22;67019;51.034;3.728;2023-03-31T15:50:23;10.40;97.30
77829;DHT22;67019;51.034;3.728;2023-03-31T15:52:53;10.40;96.80
77829;DHT22;67019;51.034;3.728;2023-03-31T15:55:29;10.50;96.90
77829;DHT22;67019;51.034;3.728;2023-03-31T15:57:59;10.50;96.60
77829;DHT22;67019;51.034;3.728;2023-03-31T16:03:22;10.60;95.70
77829;DHT22;67019;51.034;3.728;2023-03-31T16:06:05;10.70;96.10
77829;DHT22;67019;51.034;3.728;2023-03-31T16:08:34;10.70;95.40
77829;DHT22;67019;51.034;3.728;2023-03-31T16:11:11;10.80;95.30
77829;DHT22;67019;51.034;3.728;2023-03-31T16:13:37;10.80;95.30
77829;DHT22;67019;51.034;3.728;2023-03-31T16:16:11;10.70;95.70
77829;DHT22;67019;51.034;3.728;2023-03-31T16:18:45;10.70;96.10
77829;DHT22;67019;51.034;3.728;2023-03-31T16:21:13;10.70;96.40
77829;DHT22;67019;51.034;3.728;2023-03-31T16:23:43;10.50;97.10
77829;DHT22;67019;51.034;3.728;2023-03-31T16:26:18;10.40;97.50
77829;DHT22;67019;51.034;3.728;2023-03-31T16:28:42;10.30;97.90
77829;DHT22;67019;51.034;3.728;2023-03-31T16:31:38;10.40;97.80
77829;DHT22;67019;51.034;3.728;2023-03-31T16:34:09;10.30;97.60
77829;DHT22;67019;51.034;3.728;2023-03-31T16:36:37;9.60;97.80
77829;DHT22;67019;51.034;3.728;2023-03-31T16:39:05;10.30;98.00
77829;DHT22;67019;51.034;3.728;2023-03-31T16:41:35;10.30;97.70
77829;DHT22;67019;51.034;3.728;2023-03-31T16:44:04;10.30;98.00
77829;DHT22;67019;51.034;3.728;2023-03-31T16:46:32;10.30;97.50
77829;DHT22;67019;51.034;3.728;2023-03-31T16:48:59;10.30;97.40
77829;DHT22;67019;51.034;3.728;2023-03-31T16:51:27;10.30;97.00
77829;DHT22;67019;51.034;3.728;2023-03-31T16:53:55;10.40;97.30
77829;DHT22;67019;51.034;3.728;2023-03-31T16:56:22;10.30;97.60
77829;DHT22;67019;51.034;3.728;2023-03-31T16:58:50;10.20;98.00
77829;DHT22;67019;51.034;3.728;2023-03-31T17:01:19;10.10;98.10
77829;DHT22;67019;51.034;3.728;2023-03-31T17:03:47;10.10;98.40
77829;DHT22;67019;51.034;3.728;2023-03-31T17:06:14;10.10;98.10
77829;DHT22;67019;51.034;3.728;2023-03-31T17:08:42;10.10;98.40
77829;DHT22;67019;51.034;3.728;2023-03-31T17:11:11;10.10;98.40
77829;DHT22;67019;51.034;3.728;2023-03-31T17:13:41;10.10;98.50
77829;DHT22;67019;51.034;3.728;2023-03-31T17:16:09;10.10;98.60
77829;DHT22;67019;51.034;3.728;2023-03-31T17:18:37;10.00;99.00
77829;DHT22;67019;51.034;3.728;2023-03-31T17:21:07;10.00;98.90
77829;DHT22;67019;51.034;3.728;2023-03-31T17:23:38;10.00;98.80
77829;DHT22;67019;51.034;3.728;2023-03-31T17:26:08;7.70;98.10
77829;DHT22;67019;51.034;3.728;2023-03-31T17:28:39;10.10;98.50
77829;DHT22;67019;51.034;3.728;2023-03-31T17:31:19;10.00;98.40
77829;DHT22;67019;51.034;3.728;2023-03-31T17:33:47;10.10;98.00
77829;DHT22;67019;51.034;3.728;2023-03-31T17:36:15;10.10;97.90
77829;DHT22;67019;51.034;3.728;2023-03-31T17:38:43;10.10;97.80
77829;DHT22;67019;51.034;3.728;2023-03-31T17:41:12;10.20;98.00
77829;DHT22;67019;51.034;3.728;2023-03-31T17:43:45;10.20;97.80
77829;DHT22;67019;51.034;3.728;2023-03-31T17:46:12;10.10;97.90
77829;DHT22;67019;51.034;3.728;2023-03-31T17:48:41;10.10;98.40
77829;DHT22;67019;51.034;3.728;2023-03-31T17:51:15;10.10;98.60
77829;DHT22;67019;51.034;3.728;2023-03-31T17:53:44;10.10;98.30
77829;DHT22;67019;51.034;3.728;2023-03-31T17:56:17;10.00;98.70
77829;DHT22;67019;51.034;3.728;2023-03-31T17:58:48;10.00;98.10
77829;DHT22;67019;51.034;3.728;2023-03-31T18:01:18;10.10;98.30
77829;DHT22;67019;51.034;3.728;2023-03-31T18:03:45;10.10;98.10
77829;DHT22;67019;51.034;3.728;2023-03-31T18:06:13;10.10;98.00
77829;DHT22;67019;51.034;3.728;2023-03-31T18:08:43;10.10;98.00
77829;DHT22;67019;51.034;3.728;2023-03-31T18:11:11;10.10;98.40
77829;DHT22;67019;51.034;3.728;2023-03-31T18:13:39;10.10;98.40
77829;DHT22;67019;51.034;3.728;2023-03-31T18:16:08;10.00;98.70